Time;durP1;ratioP1;P1;durP2;ratioP2;P2;SDS_P1;SDS_P2;PMS_P1;PMS_P2;Temp;Humidity;BMP_temperature;BMP_pressure;BME280_temperature;BME280_humidity;BME280_pressure;Samples;Min_cycle;Max_cycle;Signal;HPM_P1;HPM_P2
2023/03/14 00:01:13;;;;;;;4.38;1.10;;;;;;;19.91;54.07;98904.06;5093828;28;20028;-71
2023/03/14 00:03:39;;;;;;;4.15;1.20;;;;;;;19.93;53.93;98907.44;5093769;28;20388;-70
2023/03/14 00:06:06;;;;;;;4.18;1.27;;;;;;;19.91;54.10;98915.50;5126215;27;20047;-71
2023/03/14 00:08:31;;;;;;;3.00;0.93;;;;;;;19.92;54.04;98917.22;5092409;28;20380;-72
2023/03/14 00:11:00;;;;;;;2.80;0.90;;;;;;;19.89;54.11;98920.03;5093594;28;20031;-71
2023/03/14 00:13:25;;;;;;;3.63;1.20;;;;;;;19.89;53.93;98913.91;5093514;28;20373;-72
2023/03/14 00:15:50;;;;;;;3.28;1.23;;;;;;;19.89;54.13;98905.97;5093497;28;20081;-70
2023/03/14 00:18:16;;;;;;;4.00;1.27;;;;;;;19.90;54.04;98905.84;5093440;28;20051;-72
2023/03/14 00:20:41;;;;;;;4.53;1.23;;;;;;;19.89;54.06;98903.31;5093088;28;20036;-70
2023/03/14 00:23:07;;;;;;;3.40;1.10;;;;;;;19.87;54.06;98903.41;5093201;28;20395;-71
2023/03/14 00:25:32;;;;;;;2.83;1.00;;;;;;;19.89;54.06;98900.69;5092964;28;20032;-72
2023/03/14 00:27:57;;;;;;;3.90;1.00;;;;;;;19.89;54.13;98908.63;5092123;28;20097;-72
2023/03/14 00:30:23;;;;;;;5.38;1.35;;;;;;;19.85;53.97;98903.50;5093492;28;20115;-70
2023/03/14 00:32:48;;;;;;;3.13;1.10;;;;;;;19.86;54.17;98902.56;5093904;28;20032;-72
2023/03/14 00:35:14;;;;;;;2.80;0.90;;;;;;;19.85;54.14;98902.66;5093458;28;20028;-70
2023/03/14 00:37:40;;;;;;;3.25;0.93;;;;;;;19.83;54.08;98904.56;5092328;28;20557;-70
2023/03/14 00:40:07;;;;;;;3.42;1.00;;;;;;;19.85;54.10;98914.09;5093596;28;20036;-71
2023/03/14 00:42:33;;;;;;;2.50;1.05;;;;;;;19.84;54.10;98915.06;5093055;28;20032;-71
2023/03/14 00:44:58;;;;;;;3.40;1.00;;;;;;;19.83;54.30;98908.06;5093315;28;20020;-71
2023/03/14 00:47:23;;;;;;;3.28;0.82;;;;;;;19.83;54.17;98910.72;5092917;28;20028;-70
2023/03/14 00:49:49;;;;;;;2.25;0.90;;;;;;;19.83;54.02;98902.78;5092494;28;20502;-72
2023/03/14 00:52:14;;;;;;;2.70;1.02;;;;;;;19.82;54.24;98893.09;5092864;28;20028;-71
2023/03/14 00:54:40;;;;;;;3.10;1.15;;;;;;;19.82;54.14;98893.09;5092715;28;20099;-71
2023/03/14 00:57:05;;;;;;;3.35;1.20;;;;;;;19.80;54.27;98900.31;5092870;28;20028;-71
2023/03/14 00:59:31;;;;;;;3.70;1.20;;;;;;;19.83;53.98;98893.97;5092569;28;20093;-70
2023/03/14 01:01:56;;;;;;;2.33;0.90;;;;;;;19.80;54.14;98895.03;5092746;28;20024;-71
2023/03/14 01:04:22;;;;;;;2.45;0.70;;;;;;;19.79;54.21;98893.31;5092409;28;20106;-72
2023/03/14 01:06:48;;;;;;;3.20;1.05;;;;;;;19.80;54.14;98895.03;5092585;28;20028;-72
2023/03/14 01:09:14;;;;;;;3.17;1.23;;;;;;;19.79;54.10;98893.31;5092352;28;20035;-71
2023/03/14 01:11:39;;;;;;;2.42;1.00;;;;;;;19.80;54.07;98894.19;5092553;28;20025;-71
2023/03/14 01:14:05;;;;;;;3.45;0.85;;;;;;;19.76;54.27;98888.22;5092498;28;20028;-71
2023/03/14 01:16:33;;;;;;;3.72;0.80;;;;;;;19.76;54.01;98877.63;5092315;28;20043;-72
2023/03/14 01:18:58;;;;;;;3.15;0.90;;;;;;;19.74;54.00;98882.19;5092060;28;20031;-71
2023/03/14 01:21:27;;;;;;;3.50;1.30;;;;;;;19.72;54.10;98884.91;5091181;28;20032;-71
2023/03/14 01:23:54;;;;;;;3.70;1.13;;;;;;;19.72;54.11;98886.75;5092398;28;20036;-72
2023/03/14 01:26:22;;;;;;;2.05;0.80;;;;;;;19.72;54.19;98887.56;5092352;28;20499;-72
2023/03/14 01:28:49;;;;;;;2.35;0.60;;;;;;;19.71;53.97;98891.16;5092305;28;20046;-71
2023/03/14 01:31:15;;;;;;;3.50;1.00;;;;;;;19.72;54.04;98882.28;5092193;28;20028;-71
2023/03/14 01:33:41;;;;;;;3.22;1.08;;;;;;;19.74;53.97;98890.13;5091899;28;20028;-71
2023/03/14 01:36:07;;;;;;;3.80;0.90;;;;;;;19.73;54.04;98883.13;5090095;28;20054;-71
2023/03/14 01:38:35;;;;;;;2.58;0.80;;;;;;;19.70;54.12;98875.38;5092189;28;20028;-71
2023/03/14 01:41:02;;;;;;;3.15;1.00;;;;;;;19.69;54.22;98871.91;5092208;28;20595;-72
2023/03/14 01:43:28;;;;;;;3.50;1.10;;;;;;;19.69;53.80;98882.50;5092146;28;20024;-71
2023/03/14 01:46:05;;;;;;;4.70;1.40;;;;;;;19.67;54.02;98884.38;5092169;28;20024;-70
2023/03/14 01:48:49;;;;;;;3.83;0.98;;;;;;;19.70;53.88;98885.97;5092119;28;20035;-71
2023/03/14 01:51:20;;;;;;;5.70;1.00;;;;;;;19.67;53.80;98884.38;5090528;28;20063;-70
2023/03/14 01:53:49;;;;;;;4.22;1.05;;;;;;;19.66;53.74;98887.97;5092208;28;20028;-71
2023/03/14 01:56:17;;;;;;;4.70;1.27;;;;;;;19.65;54.00;98882.75;5092190;28;20111;-71
2023/03/14 01:58:46;;;;;;;3.15;0.98;;;;;;;19.64;53.78;98875.78;5091828;28;20040;-70
2023/03/14 02:01:12;;;;;;;4.53;1.00;;;;;;;19.62;53.65;98877.69;5091475;28;20081;-71
2023/03/14 02:03:50;;;;;;;4.03;1.00;;;;;;;19.63;53.76;98871.44;5091999;28;20466;-72
2023/03/14 02:06:19;;;;;;;3.15;0.85;;;;;;;19.61;53.86;98868.06;5092086;28;20043;-72
2023/03/14 02:08:48;;;;;;;3.05;1.20;;;;;;;19.58;53.54;98864.63;5092015;28;20043;-71
2023/03/14 02:11:14;;;;;;;3.38;1.15;;;;;;;19.59;53.75;98870.78;5091697;28;20035;-71
2023/03/14 02:13:39;;;;;;;4.22;1.35;;;;;;;19.59;53.79;98863.72;5091906;28;20028;-70
2023/03/14 02:16:05;;;;;;;3.70;1.13;;;;;;;19.59;53.73;98868.16;5090177;28;20051;-71
2023/03/14 02:18:30;;;;;;;4.68;1.02;;;;;;;19.59;53.99;98858.41;5091789;28;20407;-72
2023/03/14 02:21:21;;;;;;;5.05;1.50;;;;;;;19.61;53.77;98860.13;5091598;28;20032;-71
2023/03/14 02:23:52;;;;;;;5.05;1.30;;;;;;;19.62;54.04;98859.16;5091717;28;20043;-72
2023/03/14 02:26:27;;;;;;;3.50;1.10;;;;;;;19.58;53.90;98859.34;5091714;28;20036;-71
2023/03/14 02:28:53;;;;;;;4.72;1.40;;;;;;;19.61;53.85;98852.19;5091635;28;20047;-71
2023/03/14 02:31:20;;;;;;;4.28;1.05;;;;;;;19.62;53.67;98848.56;5091367;28;20028;-71
2023/03/14 02:33:46;;;;;;;7.10;1.33;;;;;;;19.61;53.70;98847.72;5091675;28;20028;-72
2023/03/14 02:36:14;;;;;;;4.63;1.35;;;;;;;19.62;53.72;98848.56;5091678;28;20062;-72
2023/03/14 02:39:01;;;;;;;5.20;1.25;;;;;;;19.60;53.79;98853.97;5091723;28;20024;-72
2023/03/14 02:41:26;;;;;;;;;;;;;;;19.61;53.79;98863.59;5090634;28;20032;-72
2023/03/14 02:43:51;;;;;;;4.23;1.53;;;;;;;19.59;53.78;98858.41;5091560;28;20096;-71
2023/03/14 02:46:20;;;;;;;4.85;1.23;;;;;;;19.59;53.65;98850.47;5091282;28;20024;-71
2023/03/14 02:48:53;;;;;;;3.75;1.13;;;;;;;19.62;53.67;98877.69;5094696;28;20032;-72
2023/03/14 02:51:20;;;;;;;4.93;1.42;;;;;;;19.62;53.94;98864.44;5094784;28;20052;-71
2023/03/14 02:53:45;;;;;;;5.95;1.50;;;;;;;19.61;53.67;98868.88;5095039;28;20103;-71
2023/03/14 02:56:11;;;;;;;5.20;1.48;;;;;;;19.61;53.58;98883.94;5094940;28;20077;-71
2023/03/14 02:58:37;;;;;;;4.63;1.35;;;;;;;19.61;53.75;98883.94;5094623;28;20391;-68
2023/03/14 03:01:03;;;;;;;7.03;1.67;;;;;;;19.59;53.47;98882.25;5094736;28;20040;-72
2023/03/14 03:03:28;;;;;;;5.75;1.73;;;;;;;19.57;53.32;98886.75;5094528;28;20031;-72
2023/03/14 03:05:55;;;;;;;4.70;1.35;;;;;;;19.58;53.49;98874.41;5095015;28;20035;-68
2023/03/14 03:08:23;;;;;;;5.72;1.80;;;;;;;19.58;53.37;98872.56;5094903;28;20024;-72
2023/03/14 03:10:49;;;;;;;6.90;1.35;;;;;;;19.58;53.22;98862.00;5094844;28;20035;-71
2023/03/14 03:13:14;;;;;;;6.97;2.00;;;;;;;19.59;53.35;98871.66;5094285;28;20107;-72
2023/03/14 03:15:40;;;;;;;6.93;1.58;;;;;;;19.58;53.40;98843.47;5094807;28;20059;-72
2023/03/14 03:18:06;;;;;;;5.80;1.50;;;;;;;19.57;53.36;98867.41;5094769;28;20020;-72
2023/03/14 03:20:31;;;;;;;5.97;1.73;;;;;;;19.57;53.26;98878.00;5094392;28;20024;-71
2023/03/14 03:22:59;;;;;;;7.97;1.60;;;;;;;19.56;53.14;98881.56;5094671;28;20028;-72
2023/03/14 03:25:24;;;;;;;6.18;1.40;;;;;;;19.55;53.13;98886.03;5094547;28;20048;-71
2023/03/14 03:27:49;;;;;;;6.57;1.27;;;;;;;19.56;53.38;98892.16;5094305;28;20463;-72
2023/03/14 03:30:15;;;;;;;5.85;1.60;;;;;;;19.57;53.07;98899.16;5094660;28;20028;-71
2023/03/14 03:32:41;;;;;;;7.00;1.75;;;;;;;19.57;53.09;98902.63;5094554;28;20129;-71
2023/03/14 03:35:07;;;;;;;7.88;1.88;;;;;;;19.56;53.15;98897.44;5094336;28;20111;-72
2023/03/14 03:37:33;;;;;;;8.00;1.85;;;;;;;19.56;52.99;98900.09;5094437;28;20020;-71
2023/03/14 03:40:04;;;;;;;4.55;1.60;;;;;;;19.54;52.91;98910.78;5094370;28;20031;-72
2023/03/14 03:42:30;;;;;;;7.28;1.92;;;;;;;19.54;53.08;98899.34;5093919;28;20021;-72
2023/03/14 03:44:55;;;;;;;8.32;2.00;;;;;;;19.53;52.73;98911.75;5092795;28;20027;-72
2023/03/14 03:47:21;;;;;;;8.25;1.90;;;;;;;19.54;53.02;98889.63;5093994;28;20024;-72
2023/03/14 03:49:46;;;;;;;6.30;1.67;;;;;;;19.55;52.86;98911.63;5094005;28;20040;-70
2023/03/14 03:52:11;;;;;;;7.72;1.88;;;;;;;19.52;52.61;98928.53;5093839;28;20099;-73
2023/03/14 03:54:37;;;;;;;7.47;1.70;;;;;;;19.52;52.77;98928.53;5093817;28;20105;-71
2023/03/14 03:57:03;;;;;;;6.75;1.67;;;;;;;19.53;52.67;98930.28;5093639;28;20093;-71
2023/03/14 03:59:29;;;;;;;8.13;2.03;;;;;;;19.53;52.50;98932.06;5092677;28;20017;-71
2023/03/14 04:01:54;;;;;;;6.60;2.08;;;;;;;19.53;52.44;98934.69;5093518;28;20012;-72
2023/03/14 04:04:19;;;;;;;6.50;1.77;;;;;;;19.51;52.48;98947.19;5093428;28;20012;-71
2023/03/14 04:06:45;;;;;;;6.50;1.73;;;;;;;19.50;52.35;98951.63;5093842;28;20020;-73
2023/03/14 04:09:11;;;;;;;8.40;1.95;;;;;;;19.49;52.40;98960.50;5093591;28;20027;-71
2023/03/14 04:11:37;;;;;;;6.57;1.85;;;;;;;19.50;52.45;98956.91;5093068;28;20526;-72
2023/03/14 04:14:03;;;;;;;6.28;1.58;;;;;;;19.49;52.40;98965.81;5093664;28;20028;-72
2023/03/14 04:16:31;;;;;;;9.80;1.92;;;;;;;19.48;52.30;98958.81;5092262;28;20051;-71
2023/03/14 04:18:56;;;;;;;7.40;2.55;;;;;;;19.47;52.48;98967.69;5093466;28;20012;-72
2023/03/14 04:21:22;;;;;;;6.35;1.95;;;;;;;19.49;52.26;98976.38;5093522;28;20043;-72
2023/03/14 04:23:47;;;;;;;6.82;1.65;;;;;;;19.48;52.38;98960.59;5093260;28;20066;-71
2023/03/14 04:26:12;;;;;;;8.73;2.08;;;;;;;19.47;52.48;98967.69;5092936;28;20399;-72
2023/03/14 04:28:38;;;;;;;4.93;1.75;;;;;;;19.45;52.39;98954.56;5093332;28;20099;-72
2023/03/14 04:31:13;;;;;;;8.32;2.10;;;;;;;19.46;52.19;98955.38;5092989;28;20020;-69
2023/03/14 04:33:39;;;;;;;7.32;1.73;;;;;;;19.46;52.45;98963.31;5093143;28;20029;-72
2023/03/14 04:36:06;;;;;;;5.30;1.60;;;;;;;19.45;52.10;98970.44;5093274;28;20074;-71
2023/03/14 04:38:32;;;;;;;7.95;1.88;;;;;;;19.46;52.20;98984.50;5092925;28;20103;-71
2023/03/14 04:40:58;;;;;;;7.78;2.10;;;;;;;19.44;52.39;98983.75;5092501;28;20111;-71
2023/03/14 04:43:25;;;;;;;6.07;1.73;;;;;;;19.44;52.12;99000.50;5093227;28;20046;-72
2023/03/14 04:45:52;;;;;;;6.95;1.88;;;;;;;19.44;52.05;98996.97;5092916;28;20028;-72
2023/03/14 04:48:18;;;;;;;9.30;2.42;;;;;;;19.43;52.01;98998.75;5093006;28;20028;-72
2023/03/14 04:50:43;;;;;;;9.88;2.72;;;;;;;19.44;52.13;99003.13;5093107;28;20036;-71
2023/03/14 04:53:09;;;;;;;7.30;2.30;;;;;;;19.42;52.38;98996.25;5092759;28;20513;-71
2023/03/14 04:55:35;;;;;;;5.30;1.95;;;;;;;19.43;52.33;99005.88;5092610;28;20486;-73
2023/03/14 04:58:00;;;;;;;6.78;2.15;;;;;;;19.42;52.17;99022.69;5092743;28;20039;-74
2023/03/14 05:00:26;;;;;;;8.75;2.22;;;;;;;19.41;52.18;99018.31;5092522;28;20028;-72
2023/03/14 05:02:51;;;;;;;7.15;1.90;;;;;;;19.41;52.13;99015.69;5091379;28;20027;-72
2023/03/14 05:05:17;;;;;;;9.50;1.98;;;;;;;19.42;52.10;99014.75;5092480;28;20028;-71
2023/03/14 05:07:42;;;;;;;7.05;2.25;;;;;;;19.40;52.18;99017.50;5092742;28;20517;-72
2023/03/14 05:10:09;;;;;;;7.88;1.88;;;;;;;19.42;52.22;99007.66;5092228;28;20032;-71
2023/03/14 05:12:34;;;;;;;7.10;1.80;;;;;;;19.40;52.21;99024.56;5092629;28;20107;-71
2023/03/14 05:15:00;;;;;;;6.93;2.10;;;;;;;19.41;51.91;99026.25;5092429;28;20026;-71
2023/03/14 05:17:25;;;;;;;8.13;1.92;;;;;;;19.40;51.94;99038.66;5092864;28;20097;-71
2023/03/14 05:19:50;;;;;;;6.93;1.85;;;;;;;19.40;52.21;99038.66;5092510;28;20042;-73
2023/03/14 05:22:16;;;;;;;6.55;1.90;;;;;;;19.40;52.07;99043.09;5092320;28;20023;-71
2023/03/14 05:24:41;;;;;;;7.65;2.17;;;;;;;19.39;51.97;99030.81;5092186;28;20020;-71
2023/03/14 05:27:07;;;;;;;9.18;1.75;;;;;;;19.38;52.09;99039.69;5092183;28;20475;-71
2023/03/14 05:29:32;;;;;;;8.15;2.40;;;;;;;19.37;51.98;99030.06;5092048;28;20020;-72
2023/03/14 05:31:57;;;;;;;7.95;2.10;;;;;;;19.34;51.94;99030.25;5092000;28;20024;-71
2023/03/14 05:34:23;;;;;;;7.35;1.95;;;;;;;19.35;52.02;99026.63;5092329;28;20039;-72
2023/03/14 05:36:48;;;;;;;7.00;2.10;;;;;;;19.34;51.97;99031.09;5092382;28;20506;-72
2023/03/14 05:39:14;;;;;;;8.43;2.10;;;;;;;19.32;51.93;99028.53;5091464;28;20035;-71
2023/03/14 05:41:39;;;;;;;7.22;1.90;;;;;;;19.33;51.97;99034.69;5092052;28;20020;-72
2023/03/14 05:44:04;;;;;;;7.22;2.03;;;;;;;19.31;52.01;99026.84;5091914;28;20024;-71
2023/03/14 05:46:30;;;;;;;8.40;2.28;;;;;;;19.32;51.96;99032.97;5092259;28;20028;-72
2023/03/14 05:48:57;;;;;;;6.18;1.50;;;;;;;19.30;51.96;99035.72;5092012;28;20429;-72
2023/03/14 05:51:22;;;;;;;6.78;2.28;;;;;;;19.30;51.92;99041.03;5091984;28;20064;-72
2023/03/14 05:53:48;;;;;;;8.00;2.08;;;;;;;19.30;51.88;99035.72;5091618;28;20060;-71
2023/03/14 05:56:13;;;;;;;7.65;2.42;;;;;;;19.29;52.04;99055.19;5092037;28;20078;-72
2023/03/14 05:58:39;;;;;;;8.85;2.70;;;;;;;19.27;51.83;99051.78;5092150;28;20043;-72
2023/03/14 06:01:05;;;;;;;9.35;2.35;;;;;;;19.26;52.12;99080.97;5091876;28;20036;-72
2023/03/14 06:03:31;;;;;;;7.05;2.10;;;;;;;19.21;51.58;99105.03;5092106;28;20048;-72
2023/03/14 06:05:56;;;;;;;8.60;2.35;;;;;;;19.25;51.79;99090.69;5091908;28;20056;-72
2023/03/14 06:08:22;;;;;;;8.18;2.38;;;;;;;19.24;51.85;99089.00;5091219;28;20035;-71
2023/03/14 06:10:48;;;;;;;9.98;2.22;;;;;;;19.25;52.09;99119.81;5091279;28;20107;-71
2023/03/14 06:13:15;;;;;;;9.40;2.72;;;;;;;19.24;52.41;99099.59;5091339;28;20035;-71
2023/03/14 06:15:41;;;;;;;6.53;1.90;;;;;;;19.22;52.49;99106.75;5091703;28;20099;-68
2023/03/14 06:18:06;;;;;;;9.32;2.10;;;;;;;19.25;52.41;99101.28;5090598;28;20122;-69
2023/03/14 06:20:33;;;;;;;7.90;2.38;;;;;;;19.22;52.54;99106.75;5091595;28;20028;-68
2023/03/14 06:22:58;;;;;;;8.68;1.80;;;;;;;19.20;52.73;99113.94;5093318;28;20111;-69
2023/03/14 06:25:24;;;;;;;6.82;2.00;;;;;;;19.19;52.72;99114.88;5095886;28;20047;-69
2023/03/14 06:27:49;;;;;;;7.32;2.42;;;;;;;19.21;52.60;99125.38;5095380;28;20020;-68
2023/03/14 06:30:15;;;;;;;7.32;2.20;;;;;;;19.18;52.57;99136.97;5095472;28;20017;-68
2023/03/14 06:32:41;;;;;;;12.05;3.00;;;;;;;19.16;52.74;99150.28;5095618;28;20063;-67
2023/03/14 06:35:06;;;;;;;11.85;3.13;;;;;;;19.14;54.62;99156.59;5095071;28;20085;-68
2023/03/14 06:37:32;;;;;;;10.95;3.25;;;;;;;19.15;54.68;99156.53;5128236;27;20050;-68
2023/03/14 06:39:57;;;;;;;13.77;2.70;;;;;;;19.17;54.68;99156.41;5095086;28;20099;-66
2023/03/14 06:42:22;;;;;;;12.55;2.97;;;;;;;19.17;54.63;99162.56;5078768;28;20626;-68
2023/03/14 06:44:48;;;;;;;9.90;2.55;;;;;;;19.16;54.63;99163.50;5084487;28;20033;-68
2023/03/14 06:47:13;;;;;;;10.05;2.25;;;;;;;19.16;54.70;99165.28;5090011;28;20036;-68
2023/03/14 06:49:39;;;;;;;9.57;2.67;;;;;;;19.17;54.50;99161.69;5093561;28;20445;-68
2023/03/14 06:52:04;;;;;;;13.85;2.70;;;;;;;19.14;54.60;99183.06;5094774;28;20016;-67
2023/03/14 06:54:30;;;;;;;8.50;2.58;;;;;;;19.15;54.46;99158.31;5094976;28;20525;-67
2023/03/14 06:56:55;;;;;;;12.48;2.95;;;;;;;19.17;54.19;99174.94;5095061;28;20008;-68
2023/03/14 06:59:21;;;;;;;11.40;2.50;;;;;;;19.18;54.33;99189.88;5094750;28;20065;-67
2023/03/14 07:01:47;;;;;;;8.50;2.30;;;;;;;19.17;54.29;99198.72;5094834;28;20032;-67
2023/03/14 07:04:13;;;;;;;10.48;2.90;;;;;;;19.14;54.21;99198.91;5095191;28;20028;-68
2023/03/14 07:06:43;;;;;;;8.45;2.28;;;;;;;19.13;54.32;99213.09;5094795;28;20107;-68
2023/03/14 07:09:12;;;;;;;9.48;3.08;;;;;;;19.13;54.41;99197.22;5095196;28;20422;-68
2023/03/14 07:11:37;;;;;;;10.25;3.42;;;;;;;19.10;54.58;99206.19;5095151;28;20103;-71
2023/03/14 07:14:03;;;;;;;9.13;2.60;;;;;;;19.11;53.95;99220.25;5094898;28;20082;-67
2023/03/14 07:16:31;;;;;;;9.43;2.75;;;;;;;19.12;54.44;99214.03;5094838;28;20024;-68
2023/03/14 07:18:57;;;;;;;9.10;2.95;;;;;;;19.14;54.18;99214.78;5094816;28;20024;-68
2023/03/14 07:21:23;;;;;;;7.55;2.30;;;;;;;19.14;54.11;99217.44;5094315;28;20103;-68
2023/03/14 07:23:48;;;;;;;10.68;2.53;;;;;;;19.12;54.04;99217.50;5094760;28;20431;-67
2023/03/14 07:26:14;;;;;;;10.48;2.67;;;;;;;19.09;54.38;99217.72;5094656;28;20047;-67
2023/03/14 07:28:39;;;;;;;9.43;2.90;;;;;;;19.11;54.17;99214.94;5094811;28;20077;-67
2023/03/14 07:31:05;;;;;;;10.55;2.67;;;;;;;19.11;54.36;99226.41;5094469;28;20108;-68
2023/03/14 07:33:30;;;;;;;11.13;2.50;;;;;;;19.13;54.12;99223.66;5094571;28;20020;-68
2023/03/14 07:35:56;;;;;;;9.88;2.63;;;;;;;19.13;54.22;99234.25;5094121;28;20482;-68
2023/03/14 07:38:21;;;;;;;8.00;2.38;;;;;;;19.10;54.24;99224.69;5093254;28;20028;-68
2023/03/14 07:40:46;;;;;;;11.10;2.70;;;;;;;19.12;54.41;99237.84;5094367;28;20541;-68
2023/03/14 07:43:12;;;;;;;9.13;2.53;;;;;;;19.12;54.20;99240.47;5094460;28;20055;-68
2023/03/14 07:45:37;;;;;;;8.40;2.03;;;;;;;19.11;54.16;99242.25;5094532;28;20029;-67
2023/03/14 07:48:03;;;;;;;9.00;2.58;;;;;;;19.12;54.14;99259.00;5093222;28;20097;-67
2023/03/14 07:50:28;;;;;;;8.07;2.47;;;;;;;19.12;54.29;99259.84;5093717;28;20032;-67
2023/03/14 07:52:54;;;;;;;12.45;2.78;;;;;;;19.08;54.33;99252.16;5094337;28;20503;-67
2023/03/14 07:55:20;;;;;;;8.98;2.05;;;;;;;19.12;53.94;99259.00;5094151;28;20061;-67
2023/03/14 07:57:46;;;;;;;11.57;2.80;;;;;;;19.11;53.99;99258.13;5094266;28;20024;-67
2023/03/14 08:00:13;;;;;;;10.80;3.10;;;;;;;19.13;54.04;99268.63;5094058;28;20032;-68
2023/03/14 08:02:40;;;;;;;8.32;2.13;;;;;;;19.14;53.94;99270.34;5094156;28;20024;-67
2023/03/14 08:05:05;;;;;;;8.65;3.05;;;;;;;19.14;53.90;99273.81;5093706;28;20069;-68
2023/03/14 08:07:31;;;;;;;11.68;2.75;;;;;;;19.14;54.12;99263.22;5094169;28;20425;-68
2023/03/14 08:10:06;;;;;;;7.82;2.63;;;;;;;19.12;54.03;99277.50;5092662;28;20036;-68
2023/03/14 08:12:31;;;;;;;9.68;2.92;;;;;;;19.15;53.92;99287.91;5093645;28;20031;-68
2023/03/14 08:14:59;;;;;;;10.38;2.67;;;;;;;19.14;53.92;99283.56;5093608;28;20099;-68
2023/03/14 08:17:24;;;;;;;9.48;2.45;;;;;;;19.12;53.87;99301.31;5093351;28;20099;-67
2023/03/14 08:19:50;;;;;;;7.43;2.28;;;;;;;19.15;53.75;99301.13;5093418;28;20535;-69
2023/03/14 08:22:15;;;;;;;11.05;2.60;;;;;;;19.14;54.03;99310.00;5093458;28;20017;-68
2023/03/14 08:24:41;;;;;;;10.80;2.85;;;;;;;19.15;53.85;99315.22;5093589;28;20016;-69
2023/03/14 08:27:06;;;;;;;10.57;2.45;;;;;;;19.15;54.11;99324.94;5093238;28;20476;-69
2023/03/14 08:29:32;;;;;;;9.80;2.63;;;;;;;19.15;53.74;99325.81;5093212;28;20024;-68
2023/03/14 08:31:57;;;;;;;8.23;2.60;;;;;;;19.16;53.95;99324.00;5092927;28;20020;-68
2023/03/14 08:34:23;;;;;;;10.18;2.67;;;;;;;19.15;53.82;99327.56;5093271;28;20592;-67
2023/03/14 08:36:48;;;;;;;7.10;2.15;;;;;;;19.15;53.86;99324.94;5093384;28;20031;-68
2023/03/14 08:39:13;;;;;;;13.30;3.75;;;;;;;19.15;53.93;99331.09;5093182;28;20031;-68
2023/03/14 08:41:43;;;;;;;11.48;3.25;;;;;;;19.16;53.88;99334.56;5092649;28;20399;-68
2023/03/14 08:44:11;;;;;;;11.20;3.08;;;;;;;19.16;53.74;99337.22;5093849;28;20040;-72
2023/03/14 08:46:36;;;;;;;8.77;2.60;;;;;;;19.15;53.55;99335.50;5093692;28;20028;-68
2023/03/14 08:49:02;;;;;;;9.43;2.70;;;;;;;19.17;53.74;99336.28;5093544;28;20024;-68
2023/03/14 08:51:27;;;;;;;10.30;2.55;;;;;;;19.17;53.62;99330.97;5093194;28;20043;-67
2023/03/14 08:53:53;;;;;;;9.77;2.63;;;;;;;19.16;53.54;99335.44;5093484;28;20020;-67
2023/03/14 08:56:18;;;;;;;7.55;2.67;;;;;;;19.16;53.64;99326.63;5093387;28;20016;-67
2023/03/14 08:58:44;;;;;;;10.43;3.13;;;;;;;19.16;53.75;99337.22;5093327;28;20383;-68
2023/03/14 09:01:10;;;;;;;7.38;2.42;;;;;;;19.15;53.63;99338.16;5092509;28;20090;-68
2023/03/14 09:03:37;;;;;;;11.02;4.10;;;;;;;19.14;53.64;99331.16;5093104;28;20046;-68
2023/03/14 09:06:08;;;;;;;10.93;2.78;;;;;;;19.13;53.70;99345.34;5092703;28;20020;-69
2023/03/14 09:08:34;;;;;;;10.32;3.20;;;;;;;19.13;53.45;99342.69;5092795;28;20085;-68
2023/03/14 09:10:59;;;;;;;10.25;2.80;;;;;;;19.13;53.65;99346.16;5092426;28;20437;-68
2023/03/14 09:13:25;;;;;;;10.23;3.05;;;;;;;19.13;53.56;99329.47;5092658;28;20024;-68
2023/03/14 09:15:55;;;;;;;13.60;3.80;;;;;;;19.10;53.74;99364.88;5092199;28;20031;-69
2023/03/14 09:18:21;;;;;;;10.60;2.97;;;;;;;19.04;53.83;99432.16;5090767;28;20024;-68
2023/03/14 09:20:46;;;;;;;12.43;3.30;;;;;;;19.00;53.80;99425.31;5092435;28;20039;-67
2023/03/14 09:23:12;;;;;;;13.35;2.88;;;;;;;19.01;53.44;99416.44;5091108;28;20039;-68
2023/03/14 09:25:37;;;;;;;12.90;3.35;;;;;;;19.02;53.46;99422.56;5091220;28;20087;-68
2023/03/14 09:28:03;;;;;;;10.43;3.47;;;;;;;19.00;53.21;99413.88;5092398;28;20031;-68
2023/03/14 09:30:29;;;;;;;11.00;3.00;;;;;;;18.96;53.20;99429.03;5091944;28;20024;-67
2023/03/14 09:32:54;;;;;;;10.13;3.03;;;;;;;18.94;53.41;99425.63;5091123;28;20034;-68
2023/03/14 09:35:20;;;;;;;10.23;3.10;;;;;;;18.97;53.50;99429.88;5092194;28;20028;-68
2023/03/14 09:37:45;;;;;;;9.98;3.17;;;;;;;18.92;53.39;99411.63;5092320;28;20077;-68
2023/03/14 09:40:14;;;;;;;9.07;2.70;;;;;;;18.91;53.20;99413.44;5090964;28;20028;-67
2023/03/14 09:42:40;;;;;;;7.40;2.92;;;;;;;18.90;53.59;99413.50;5091985;28;20070;-67
2023/03/14 09:45:12;;;;;;;9.07;2.45;;;;;;;18.90;53.36;99413.50;5091823;28;20081;-67
2023/03/14 09:47:39;;;;;;;12.07;3.05;;;;;;;18.91;53.20;99415.22;5092082;28;20032;-67
2023/03/14 09:50:11;;;;;;;9.73;2.80;;;;;;;18.91;53.37;99420.50;5090712;28;20040;-68
2023/03/14 09:52:39;;;;;;;9.52;3.05;;;;;;;18.91;53.45;99416.06;5091950;28;20472;-68
2023/03/14 09:55:11;;;;;;;8.88;2.88;;;;;;;18.94;53.42;99433.56;5092119;28;20030;-68
2023/03/14 09:57:37;;;;;;;9.85;2.70;;;;;;;18.96;53.44;99423.75;5093334;28;20024;-67
2023/03/14 10:00:14;;;;;;;7.93;2.78;;;;;;;18.95;53.72;99427.34;5095781;28;20032;-68
2023/03/14 10:02:42;;;;;;;9.25;3.20;;;;;;;18.96;53.64;99423.75;5094825;28;20028;-68
2023/03/14 10:05:19;;;;;;;7.63;2.45;;;;;;;18.95;53.37;99427.34;5096097;28;20024;-68
2023/03/14 10:07:45;;;;;;;9.50;2.75;;;;;;;18.96;53.56;99421.13;5096228;28;20096;-67
2023/03/14 10:10:21;;;;;;;11.00;2.63;;;;;;;18.96;53.43;99423.75;5096264;28;20486;-69
2023/03/14 10:13:08;;;;;;;10.98;2.95;;;;;;;18.96;53.51;99425.53;5095964;28;20430;-69
2023/03/14 10:15:34;;;;;;;10.70;2.83;;;;;;;18.96;53.50;99434.34;5084711;28;20119;-68
2023/03/14 10:18:02;;;;;;;9.18;3.25;;;;;;;18.97;53.48;99425.47;5095898;28;20028;-68
2023/03/14 10:20:35;;;;;;;8.95;2.50;;;;;;;18.97;53.35;99435.16;5095682;28;20052;-67
2023/03/14 10:23:01;;;;;;;10.75;3.35;;;;;;;18.98;53.51;99431.63;5095611;28;20031;-68
2023/03/14 10:25:33;;;;;;;7.82;2.83;;;;;;;18.99;53.42;99447.38;5095711;28;20028;-68
2023/03/14 10:27:58;;;;;;;10.18;3.03;;;;;;;18.97;53.72;99446.59;5095395;28;20051;-67
2023/03/14 10:30:33;;;;;;;9.85;3.03;;;;;;;18.97;53.50;99446.59;5095805;28;20471;-68
2023/03/14 10:33:08;;;;;;;9.55;3.17;;;;;;;18.99;53.46;99446.53;5095669;28;20028;-68
2023/03/14 10:35:33;;;;;;;9.95;2.63;;;;;;;18.97;53.50;99449.25;5095672;28;20020;-69
2023/03/14 10:38:03;;;;;;;8.23;2.88;;;;;;;18.94;53.60;99457.38;5095144;28;20026;-67
2023/03/14 10:40:51;;;;;;;10.88;2.33;;;;;;;18.97;53.49;99457.19;5095375;28;20032;-68
2023/03/14 10:43:30;;;;;;;9.82;3.15;;;;;;;18.96;53.29;99471.34;5074721;28;20030;-68
2023/03/14 10:45:59;;;;;;;8.90;2.63;;;;;;;18.91;53.73;99457.50;5075232;28;20376;-69
2023/03/14 10:48:37;;;;;;;8.95;2.85;;;;;;;18.90;53.39;99446.06;5074854;28;20059;-68
2023/03/14 10:51:24;;;;;;;9.52;2.50;;;;;;;18.91;53.26;99442.50;5076942;28;20134;-69
2023/03/14 10:53:56;;;;;;;8.25;3.05;;;;;;;18.91;53.54;99446.94;5094138;28;20097;-68
2023/03/14 10:56:23;;;;;;;9.70;2.80;;;;;;;18.89;53.54;99454.94;5093742;28;20024;-68
2023/03/14 10:58:52;;;;;;;7.90;2.53;;;;;;;18.90;53.41;99456.66;5093771;28;20100;-67
2023/03/14 11:01:38;;;;;;;8.65;2.63;;;;;;;18.90;53.51;99477.78;5093571;28;20064;-67
2023/03/14 11:04:21;;;;;;;9.50;2.30;;;;;;;18.86;53.28;99475.41;5093760;28;20027;-69
2023/03/14 11:06:52;;;;;;;9.57;2.65;;;;;;;18.84;53.43;99469.34;5093890;28;20509;-68
2023/03/14 11:09:35;;;;;;;7.43;2.15;;;;;;;18.82;53.41;99461.50;5094055;28;20028;-68
2023/03/14 11:12:17;;;;;;;9.50;2.30;;;;;;;18.82;53.28;99457.97;5093288;28;20032;-67
2023/03/14 11:14:51;;;;;;;6.53;2.45;;;;;;;18.79;53.35;99459.84;5093517;28;20656;-68
2023/03/14 11:17:52;;;;;;;7.05;2.35;;;;;;;18.81;53.31;99464.19;5092800;28;20497;-67
2023/03/14 11:20:33;;;;;;;7.10;2.25;;;;;;;18.78;53.43;99468.72;5031084;28;20071;-67
2023/03/14 11:23:07;;;;;;;6.10;2.10;;;;;;;18.79;53.47;99470.44;5030821;28;20068;-68
2023/03/14 11:25:44;;;;;;;5.80;1.83;;;;;;;18.79;53.60;99470.44;5031073;28;20029;-67
2023/03/14 11:28:16;;;;;;;7.75;2.35;;;;;;;18.79;53.41;99465.16;5030663;28;20120;-68
2023/03/14 11:30:53;;;;;;;7.40;2.17;;;;;;;18.81;53.22;99472.13;5031049;28;20508;-68
2023/03/14 11:33:27;;;;;;;7.70;2.28;;;;;;;18.78;53.40;99479.31;5031082;28;20127;-68